Aérodrome :
LOGIN :

S'inscrire | Disclaimer

   EN    FR    IT 

 










Légende :    VFR   VFR Marginal   IFR   IFR Intensif   IFR Très Intensif
Visi : 
Plafond : 
>= 8 km
>= 3000ft
5 à 8 km
1000 à 3000 ft
1500m à 5 km
500 à 1000 ft
800 à 1500m
200 à 500 ft
< 800m
< 200 ft
Symboles :   Orages  Brouillard  Fortes neiges  Fortes précipitations  Vent > 20 kt
SIGMETs :   Divers  Orages  Givrage  Turbulence  Onde Orograph.  Cendres Volcan.







- Altitude de l'aérodrome : 1535 ft
- Code IATA : OUD


GMFO - Ouja Angads

DERNIER METAR :
  • 221600Z 28014KT 9999 FEW020 SCT050 BKN100 12/01 Q1017 NOSIG

METARs EXPIRÉS :
  • 221500Z 25012KT 9999 FEW020 SCT050 BKN100 12/01 Q1017 NOSIG
  • 221400Z 25014KT 9999 FEW020 SCT050 BKN200 12/02 Q1018 NOSIG

TAF TAF GMFO
Valide du 22 à 12h jusqu'au 23 à 18h UTC


221100Z 2212/2318 26012KT 9999 SCT020 BKN050
BECMG 2214/2218 34014KT SCT026 BKN033
Pas de NOTAMs connus pour ce terrain.
1 SIGMET publié pour la FIR Casablanca (GMMM) :
 
Onde orographique forte
GMMM SIGMET M1 VALID 221620/222020 GMMC
GMMM CASABLANCA FIR SEV MTW FCST E OF LINE N3431 W00303 - N3210 W005 15 FL030/130 STNR INTSF=



MET'MAP, la Météo Aéronautique d'un coup d'oeil ! - Copyright ORBIFLY Décembre 2007 - Disclaimer

ORBIFLY MET'MAP TEAM :

Programmation & Développement : Alexandra Zaïnal
Conception & Développement : Baudouin d'Aumeries
Co-Programmation & Développement : Marc-Olivier Méhu
Soutien technique & logistique : Manuel Goepfert

Contact : metmap@orbifly.com




SOURCES & CREDITS :

   NOAA